Terminal Aerodrome Forecast
Issued by NWS

Home | Current Version | Previous Version | Text Only | Print | Product List | Glossary On
Versions: 1 2 3 4 5 6 7 8 9 10 11 12 13 14 15 16 17 18 19 20 21 22 23 24 25 26 27 28 29 30 31 32
000
FTAK31 PAFA 250546
TAFAMC
TAF
PAMC 250546Z 2506/2606 07005KT 3SM -SN OVC025
     FM250900 00000KT 1SM -SN BR BKN010
     FM252000 20005KT 3SM -SN BR SCT010 BKN035=

USA.gov is the U.S. government's official web portal to all federal, state and local government web resources and services.